sensor_id;sensor_type;location;lat;lon;timestamp;P1;durP1;ratioP1;P2;durP2;ratioP2
11018;SDS011;5563;52.296;6.806;2023-03-23T00:01:37;8.13;;;4.88;;
11018;SDS011;5563;52.296;6.806;2023-03-23T00:04:12;7.10;;;4.82;;
11018;SDS011;5563;52.296;6.806;2023-03-23T00:06:39;5.82;;;4.82;;
11018;SDS011;5563;52.296;6.806;2023-03-23T00:09:14;7.28;;;6.18;;
11018;SDS011;5563;52.296;6.806;2023-03-23T00:11:48;8.13;;;5.35;;
11018;SDS011;5563;52.296;6.806;2023-03-23T00:14:17;5.90;;;4.63;;
11018;SDS011;5563;52.296;6.806;2023-03-23T00:16:55;6.95;;;4.30;;
11018;SDS011;5563;52.296;6.806;2023-03-23T00:19:22;5.18;;;4.60;;
11018;SDS011;5563;52.296;6.806;2023-03-23T00:21:55;6.50;;;4.75;;
11018;SDS011;5563;52.296;6.806;2023-03-23T00:24:22;5.32;;;4.35;;
11018;SDS011;5563;52.296;6.806;2023-03-23T00:27:06;5.60;;;4.10;;
11018;SDS011;5563;52.296;6.806;2023-03-23T00:29:33;7.35;;;4.80;;
11018;SDS011;5563;52.296;6.806;2023-03-23T00:32:07;6.40;;;3.90;;
11018;SDS011;5563;52.296;6.806;2023-03-23T00:34:45;5.47;;;4.55;;
11018;SDS011;5563;52.296;6.806;2023-03-23T00:37:14;6.43;;;4.68;;
11018;SDS011;5563;52.296;6.806;2023-03-23T00:39:44;5.05;;;4.40;;
11018;SDS011;5563;52.296;6.806;2023-03-23T00:42:19;6.00;;;3.83;;
11018;SDS011;5563;52.296;6.806;2023-03-23T00:44:54;5.30;;;4.28;;
11018;SDS011;5563;52.296;6.806;2023-03-23T00:47:36;6.55;;;4.13;;
11018;SDS011;5563;52.296;6.806;2023-03-23T00:50:04;6.05;;;4.72;;
11018;SDS011;5563;52.296;6.806;2023-03-23T00:52:39;5.45;;;4.32;;
11018;SDS011;5563;52.296;6.806;2023-03-23T00:55:07;5.22;;;4.18;;
11018;SDS011;5563;52.296;6.806;2023-03-23T00:57:36;6.32;;;3.88;;
11018;SDS011;5563;52.296;6.806;2023-03-23T01:00:10;5.05;;;3.55;;
11018;SDS011;5563;52.296;6.806;2023-03-23T01:02:38;5.07;;;4.03;;
11018;SDS011;5563;52.296;6.806;2023-03-23T01:05:13;5.45;;;3.78;;
11018;SDS011;5563;52.296;6.806;2023-03-23T01:07:42;5.50;;;3.78;;
11018;SDS011;5563;52.296;6.806;2023-03-23T01:10:18;7.18;;;4.30;;
11018;SDS011;5563;52.296;6.806;2023-03-23T01:12:46;5.35;;;3.70;;
11018;SDS011;5563;52.296;6.806;2023-03-23T01:15:21;4.25;;;3.85;;
11018;SDS011;5563;52.296;6.806;2023-03-23T01:17:48;5.32;;;3.95;;
11018;SDS011;5563;52.296;6.806;2023-03-23T01:20:22;4.97;;;3.63;;
11018;SDS011;5563;52.296;6.806;2023-03-23T01:22:57;5.95;;;3.53;;
11018;SDS011;5563;52.296;6.806;2023-03-23T01:25:35;5.13;;;3.85;;
11018;SDS011;5563;52.296;6.806;2023-03-23T01:28:09;4.45;;;3.40;;
11018;SDS011;5563;52.296;6.806;2023-03-23T01:30:38;7.15;;;3.78;;
11018;SDS011;5563;52.296;6.806;2023-03-23T01:33:11;5.25;;;3.60;;
11018;SDS011;5563;52.296;6.806;2023-03-23T01:35:39;5.22;;;3.67;;
11018;SDS011;5563;52.296;6.806;2023-03-23T01:38:12;4.95;;;3.63;;
11018;SDS011;5563;52.296;6.806;2023-03-23T01:40:40;4.57;;;3.85;;
11018;SDS011;5563;52.296;6.806;2023-03-23T01:43:21;4.25;;;3.60;;
11018;SDS011;5563;52.296;6.806;2023-03-23T01:45:48;4.82;;;3.53;;
11018;SDS011;5563;52.296;6.806;2023-03-23T01:51:08;7.20;;;3.33;;
11018;SDS011;5563;52.296;6.806;2023-03-23T01:56:30;3.20;;;2.90;;
11018;SDS011;5563;52.296;6.806;2023-03-23T01:59:11;5.47;;;3.53;;
11018;SDS011;5563;52.296;6.806;2023-03-23T02:01:39;4.45;;;3.20;;
11018;SDS011;5563;52.296;6.806;2023-03-23T02:04:18;4.65;;;3.70;;
11018;SDS011;5563;52.296;6.806;2023-03-23T02:06:48;4.47;;;3.55;;
11018;SDS011;5563;52.296;6.806;2023-03-23T02:09:21;4.85;;;3.50;;
11018;SDS011;5563;52.296;6.806;2023-03-23T02:11:51;4.57;;;2.92;;
11018;SDS011;5563;52.296;6.806;2023-03-23T02:14:27;4.47;;;3.78;;
11018;SDS011;5563;52.296;6.806;2023-03-23T02:17:09;4.07;;;2.85;;
11018;SDS011;5563;52.296;6.806;2023-03-23T02:22:51;4.28;;;3.20;;
11018;SDS011;5563;52.296;6.806;2023-03-23T02:37:14;4.55;;;3.03;;
11018;SDS011;5563;52.296;6.806;2023-03-23T02:40:07;3.30;;;3.00;;
11018;SDS011;5563;52.296;6.806;2023-03-23T02:43:02;3.80;;;2.95;;
11018;SDS011;5563;52.296;6.806;2023-03-23T02:46:00;5.10;;;2.83;;
11018;SDS011;5563;52.296;6.806;2023-03-23T02:48:28;2.92;;;2.72;;
11018;SDS011;5563;52.296;6.806;2023-03-23T02:51:03;4.23;;;2.63;;
11018;SDS011;5563;52.296;6.806;2023-03-23T02:53:33;4.53;;;3.25;;
11018;SDS011;5563;52.296;6.806;2023-03-23T02:56:09;3.47;;;3.10;;
11018;SDS011;5563;52.296;6.806;2023-03-23T02:58:39;4.50;;;3.00;;
11018;SDS011;5563;52.296;6.806;2023-03-23T03:04:00;4.15;;;2.85;;
11018;SDS011;5563;52.296;6.806;2023-03-23T03:09:52;6.05;;;3.45;;
11018;SDS011;5563;52.296;6.806;2023-03-23T03:15:40;3.97;;;3.25;;
11018;SDS011;5563;52.296;6.806;2023-03-23T03:18:27;4.45;;;3.38;;
11018;SDS011;5563;52.296;6.806;2023-03-23T03:21:02;4.05;;;3.28;;
11018;SDS011;5563;52.296;6.806;2023-03-23T03:23:40;4.07;;;3.67;;
11018;SDS011;5563;52.296;6.806;2023-03-23T03:26:12;3.88;;;3.50;;
11018;SDS011;5563;52.296;6.806;2023-03-23T03:28:50;3.70;;;3.40;;
11018;SDS011;5563;52.296;6.806;2023-03-23T03:31:18;4.18;;;3.78;;
11018;SDS011;5563;52.296;6.806;2023-03-23T03:33:54;5.45;;;3.33;;
11018;SDS011;5563;52.296;6.806;2023-03-23T03:36:29;4.35;;;3.40;;
11018;SDS011;5563;52.296;6.806;2023-03-23T03:39:08;4.50;;;3.50;;
11018;SDS011;5563;52.296;6.806;2023-03-23T03:41:42;4.55;;;3.42;;
11018;SDS011;5563;52.296;6.806;2023-03-23T03:44:17;4.95;;;4.15;;
11018;SDS011;5563;52.296;6.806;2023-03-23T03:46:50;3.88;;;3.58;;
11018;SDS011;5563;52.296;6.806;2023-03-23T03:49:17;5.53;;;3.97;;
11018;SDS011;5563;52.296;6.806;2023-03-23T03:51:51;5.45;;;3.63;;
11018;SDS011;5563;52.296;6.806;2023-03-23T03:54:18;3.72;;;3.33;;
11018;SDS011;5563;52.296;6.806;2023-03-23T03:56:52;4.72;;;3.70;;
11018;SDS011;5563;52.296;6.806;2023-03-23T03:59:24;5.05;;;3.80;;
11018;SDS011;5563;52.296;6.806;2023-03-23T04:01:59;4.60;;;3.78;;
11018;SDS011;5563;52.296;6.806;2023-03-23T04:04:32;4.15;;;3.72;;
11018;SDS011;5563;52.296;6.806;2023-03-23T04:06:59;5.07;;;3.80;;
11018;SDS011;5563;52.296;6.806;2023-03-23T04:09:34;5.28;;;3.60;;
11018;SDS011;5563;52.296;6.806;2023-03-23T04:12:08;5.13;;;3.78;;
11018;SDS011;5563;52.296;6.806;2023-03-23T04:14:34;5.80;;;3.03;;
11018;SDS011;5563;52.296;6.806;2023-03-23T04:17:01;3.67;;;3.35;;
11018;SDS011;5563;52.296;6.806;2023-03-23T04:19:36;3.92;;;3.25;;
11018;SDS011;5563;52.296;6.806;2023-03-23T04:22:10;4.10;;;3.70;;
11018;SDS011;5563;52.296;6.806;2023-03-23T04:24:43;4.28;;;3.55;;
11018;SDS011;5563;52.296;6.806;2023-03-23T04:27:22;6.45;;;3.90;;
11018;SDS011;5563;52.296;6.806;2023-03-23T04:29:57;7.10;;;3.85;;
11018;SDS011;5563;52.296;6.806;2023-03-23T04:32:25;6.20;;;3.78;;
11018;SDS011;5563;52.296;6.806;2023-03-23T04:35:02;3.90;;;3.53;;
11018;SDS011;5563;52.296;6.806;2023-03-23T04:37:39;6.97;;;4.45;;
11018;SDS011;5563;52.296;6.806;2023-03-23T04:40:14;5.25;;;4.25;;
11018;SDS011;5563;52.296;6.806;2023-03-23T04:42:43;5.28;;;4.22;;
11018;SDS011;5563;52.296;6.806;2023-03-23T04:45:20;5.95;;;4.45;;
11018;SDS011;5563;52.296;6.806;2023-03-23T04:47:54;5.18;;;4.50;;
11018;SDS011;5563;52.296;6.806;2023-03-23T04:50:31;5.07;;;4.13;;
11018;SDS011;5563;52.296;6.806;2023-03-23T04:52:59;5.00;;;4.05;;
11018;SDS011;5563;52.296;6.806;2023-03-23T04:55:37;5.20;;;4.22;;
11018;SDS011;5563;52.296;6.806;2023-03-23T04:58:11;5.03;;;4.15;;
11018;SDS011;5563;52.296;6.806;2023-03-23T05:00:47;4.63;;;4.18;;
11018;SDS011;5563;52.296;6.806;2023-03-23T05:03:17;4.82;;;4.32;;
11018;SDS011;5563;52.296;6.806;2023-03-23T05:05:51;4.30;;;3.45;;
11018;SDS011;5563;52.296;6.806;2023-03-23T05:08:20;4.80;;;4.35;;
11018;SDS011;5563;52.296;6.806;2023-03-23T05:10:56;5.20;;;3.92;;
11018;SDS011;5563;52.296;6.806;2023-03-23T05:13:31;4.10;;;3.70;;
11018;SDS011;5563;52.296;6.806;2023-03-23T05:16:04;3.92;;;3.50;;
11018;SDS011;5563;52.296;6.806;2023-03-23T05:18:38;6.60;;;4.18;;
11018;SDS011;5563;52.296;6.806;2023-03-23T05:21:06;4.25;;;3.88;;
11018;SDS011;5563;52.296;6.806;2023-03-23T05:23:39;5.07;;;4.10;;
11018;SDS011;5563;52.296;6.806;2023-03-23T05:26:07;4.25;;;3.83;;
11018;SDS011;5563;52.296;6.806;2023-03-23T05:28:41;5.68;;;3.78;;
11018;SDS011;5563;52.296;6.806;2023-03-23T05:31:08;4.32;;;3.92;;
11018;SDS011;5563;52.296;6.806;2023-03-23T05:33:42;4.60;;;3.65;;
11018;SDS011;5563;52.296;6.806;2023-03-23T05:36:09;4.15;;;3.75;;
11018;SDS011;5563;52.296;6.806;2023-03-23T05:38:46;4.63;;;4.20;;
11018;SDS011;5563;52.296;6.806;2023-03-23T05:41:14;4.55;;;4.15;;
11018;SDS011;5563;52.296;6.806;2023-03-23T05:43:55;4.80;;;4.40;;
11018;SDS011;5563;52.296;6.806;2023-03-23T05:46:36;4.65;;;3.53;;
11018;SDS011;5563;52.296;6.806;2023-03-23T05:49:10;4.78;;;3.78;;
11018;SDS011;5563;52.296;6.806;2023-03-23T05:51:39;4.55;;;4.15;;
11018;SDS011;5563;52.296;6.806;2023-03-23T05:54:13;5.22;;;3.65;;
11018;SDS011;5563;52.296;6.806;2023-03-23T05:56:40;4.03;;;3.63;;
11018;SDS011;5563;52.296;6.806;2023-03-23T05:59:15;2.85;;;2.58;;
11018;SDS011;5563;52.296;6.806;2023-03-23T06:01:50;4.32;;;3.47;;
11018;SDS011;5563;52.296;6.806;2023-03-23T06:04:25;6.53;;;3.55;;
11018;SDS011;5563;52.296;6.806;2023-03-23T06:06:53;4.30;;;3.13;;
11018;SDS011;5563;52.296;6.806;2023-03-23T06:09:26;7.07;;;3.28;;
11018;SDS011;5563;52.296;6.806;2023-03-23T06:11:53;4.43;;;3.33;;
11018;SDS011;5563;52.296;6.806;2023-03-23T06:14:27;5.63;;;3.35;;
11018;SDS011;5563;52.296;6.806;2023-03-23T06:17:02;4.90;;;3.45;;
11018;SDS011;5563;52.296;6.806;2023-03-23T06:19:29;5.60;;;3.67;;
11018;SDS011;5563;52.296;6.806;2023-03-23T06:22:02;6.20;;;3.65;;
11018;SDS011;5563;52.296;6.806;2023-03-23T06:24:31;5.40;;;3.28;;
11018;SDS011;5563;52.296;6.806;2023-03-23T06:27:09;4.18;;;3.08;;
11018;SDS011;5563;52.296;6.806;2023-03-23T06:29:43;7.32;;;3.30;;
11018;SDS011;5563;52.296;6.806;2023-03-23T06:32:11;6.43;;;2.90;;
11018;SDS011;5563;52.296;6.806;2023-03-23T06:34:45;6.30;;;3.10;;
11018;SDS011;5563;52.296;6.806;2023-03-23T06:37:13;7.35;;;3.05;;
11018;SDS011;5563;52.296;6.806;2023-03-23T06:39:49;4.53;;;2.70;;
11018;SDS011;5563;52.296;6.806;2023-03-23T06:42:24;3.25;;;2.72;;
11018;SDS011;5563;52.296;6.806;2023-03-23T06:45:05;7.35;;;2.70;;
11018;SDS011;5563;52.296;6.806;2023-03-23T06:47:40;7.20;;;2.70;;
11018;SDS011;5563;52.296;6.806;2023-03-23T06:50:07;7.47;;;2.72;;
11018;SDS011;5563;52.296;6.806;2023-03-23T06:52:44;4.55;;;2.53;;
11018;SDS011;5563;52.296;6.806;2023-03-23T06:55:24;4.25;;;2.45;;
11018;SDS011;5563;52.296;6.806;2023-03-23T06:57:51;9.77;;;2.80;;
11018;SDS011;5563;52.296;6.806;2023-03-23T07:00:24;6.78;;;3.30;;
11018;SDS011;5563;52.296;6.806;2023-03-23T07:02:51;7.20;;;2.97;;
11018;SDS011;5563;52.296;6.806;2023-03-23T07:05:24;4.07;;;2.55;;
11018;SDS011;5563;52.296;6.806;2023-03-23T07:07:57;6.53;;;2.80;;
11018;SDS011;5563;52.296;6.806;2023-03-23T07:10:24;4.68;;;2.55;;
11018;SDS011;5563;52.296;6.806;2023-03-23T07:13:00;6.63;;;3.17;;
11018;SDS011;5563;52.296;6.806;2023-03-23T07:15:27;6.43;;;3.00;;
11018;SDS011;5563;52.296;6.806;2023-03-23T07:18:00;4.00;;;2.97;;
11018;SDS011;5563;52.296;6.806;2023-03-23T07:20:40;6.75;;;2.60;;
11018;SDS011;5563;52.296;6.806;2023-03-23T07:23:07;4.95;;;2.75;;
11018;SDS011;5563;52.296;6.806;2023-03-23T07:25:42;6.47;;;2.55;;
11018;SDS011;5563;52.296;6.806;2023-03-23T07:28:16;5.53;;;2.78;;
11018;SDS011;5563;52.296;6.806;2023-03-23T07:30:44;5.20;;;2.70;;
11018;SDS011;5563;52.296;6.806;2023-03-23T07:33:18;5.70;;;3.05;;
11018;SDS011;5563;52.296;6.806;2023-03-23T07:35:45;4.38;;;2.63;;
11018;SDS011;5563;52.296;6.806;2023-03-23T07:38:19;5.13;;;2.60;;
11018;SDS011;5563;52.296;6.806;2023-03-23T07:40:46;5.72;;;2.78;;
11018;SDS011;5563;52.296;6.806;2023-03-23T07:43:27;6.10;;;3.20;;
11018;SDS011;5563;52.296;6.806;2023-03-23T07:45:54;3.20;;;2.55;;
11018;SDS011;5563;52.296;6.806;2023-03-23T07:48:27;5.22;;;2.80;;
11018;SDS011;5563;52.296;6.806;2023-03-23T07:50:54;5.18;;;2.97;;
11018;SDS011;5563;52.296;6.806;2023-03-23T07:53:28;4.70;;;2.65;;
11018;SDS011;5563;52.296;6.806;2023-03-23T07:55:56;7.15;;;3.10;;
11018;SDS011;5563;52.296;6.806;2023-03-23T07:58:29;5.90;;;2.83;;
11018;SDS011;5563;52.296;6.806;2023-03-23T08:00:57;6.55;;;2.50;;
11018;SDS011;5563;52.296;6.806;2023-03-23T08:03:30;4.07;;;2.50;;
11018;SDS011;5563;52.296;6.806;2023-03-23T08:06:00;8.15;;;2.88;;
11018;SDS011;5563;52.296;6.806;2023-03-23T08:08:35;6.28;;;2.65;;
11018;SDS011;5563;52.296;6.806;2023-03-23T08:11:09;6.80;;;2.83;;
11018;SDS011;5563;52.296;6.806;2023-03-23T08:13:38;6.40;;;2.85;;
11018;SDS011;5563;52.296;6.806;2023-03-23T08:16:11;7.22;;;2.42;;
11018;SDS011;5563;52.296;6.806;2023-03-23T08:18:39;3.65;;;1.90;;
11018;SDS011;5563;52.296;6.806;2023-03-23T08:21:13;4.57;;;2.58;;
11018;SDS011;5563;52.296;6.806;2023-03-23T08:23:46;4.47;;;2.38;;
11018;SDS011;5563;52.296;6.806;2023-03-23T08:26:19;7.45;;;2.70;;
11018;SDS011;5563;52.296;6.806;2023-03-23T08:28:47;4.10;;;2.20;;
11018;SDS011;5563;52.296;6.806;2023-03-23T08:31:20;7.28;;;2.08;;
11018;SDS011;5563;52.296;6.806;2023-03-23T08:33:47;4.43;;;2.42;;
11018;SDS011;5563;52.296;6.806;2023-03-23T08:36:20;5.95;;;2.58;;
11018;SDS011;5563;52.296;6.806;2023-03-23T08:38:48;4.32;;;2.15;;
11018;SDS011;5563;52.296;6.806;2023-03-23T08:41:25;4.90;;;1.80;;
11018;SDS011;5563;52.296;6.806;2023-03-23T08:43:52;5.40;;;1.90;;
11018;SDS011;5563;52.296;6.806;2023-03-23T08:46:32;6.95;;;2.28;;
11018;SDS011;5563;52.296;6.806;2023-03-23T08:48:59;3.83;;;1.65;;
11018;SDS011;5563;52.296;6.806;2023-03-23T08:51:32;4.50;;;2.00;;
11018;SDS011;5563;52.296;6.806;2023-03-23T08:54:00;3.38;;;1.60;;
11018;SDS011;5563;52.296;6.806;2023-03-23T08:56:26;6.13;;;1.80;;
11018;SDS011;5563;52.296;6.806;2023-03-23T08:59:00;2.25;;;1.30;;
11018;SDS011;5563;52.296;6.806;2023-03-23T09:01:27;2.80;;;1.50;;
11018;SDS011;5563;52.296;6.806;2023-03-23T09:04:00;3.92;;;1.75;;
11018;SDS011;5563;52.296;6.806;2023-03-23T09:06:27;2.30;;;1.50;;
11018;SDS011;5563;52.296;6.806;2023-03-23T09:09:00;2.47;;;1.25;;
11018;SDS011;5563;52.296;6.806;2023-03-23T09:11:28;3.17;;;1.50;;
11018;SDS011;5563;52.296;6.806;2023-03-23T09:14:03;2.90;;;1.50;;
11018;SDS011;5563;52.296;6.806;2023-03-23T09:16:31;3.38;;;1.63;;
11018;SDS011;5563;52.296;6.806;2023-03-23T09:19:06;2.65;;;1.70;;
11018;SDS011;5563;52.296;6.806;2023-03-23T09:21:41;4.72;;;1.90;;
11018;SDS011;5563;52.296;6.806;2023-03-23T09:24:15;2.90;;;1.33;;
11018;SDS011;5563;52.296;6.806;2023-03-23T09:26:48;3.15;;;1.60;;
11018;SDS011;5563;52.296;6.806;2023-03-23T09:29:15;2.65;;;1.58;;
11018;SDS011;5563;52.296;6.806;2023-03-23T09:31:49;3.42;;;1.60;;
11018;SDS011;5563;52.296;6.806;2023-03-23T09:34:16;3.88;;;2.28;;
11018;SDS011;5563;52.296;6.806;2023-03-23T09:36:49;4.25;;;1.80;;
11018;SDS011;5563;52.296;6.806;2023-03-23T09:39:16;4.05;;;1.60;;
11018;SDS011;5563;52.296;6.806;2023-03-23T09:41:54;3.65;;;1.60;;
11018;SDS011;5563;52.296;6.806;2023-03-23T09:50:37;3.47;;;2.05;;
11018;SDS011;5563;52.296;6.806;2023-03-23T09:53:17;6.63;;;2.10;;
11018;SDS011;5563;52.296;6.806;2023-03-23T09:55:49;5.75;;;2.10;;
11018;SDS011;5563;52.296;6.806;2023-03-23T09:58:28;4.88;;;2.05;;
11018;SDS011;5563;52.296;6.806;2023-03-23T10:01:00;3.65;;;2.30;;
11018;SDS011;5563;52.296;6.806;2023-03-23T10:03:40;4.10;;;2.17;;
11018;SDS011;5563;52.296;6.806;2023-03-23T10:06:10;4.50;;;2.20;;
11018;SDS011;5563;52.296;6.806;2023-03-23T10:08:49;6.80;;;1.80;;
11018;SDS011;5563;52.296;6.806;2023-03-23T10:13:59;3.03;;;1.88;;
11018;SDS011;5563;52.296;6.806;2023-03-23T10:16:36;4.22;;;1.90;;
11018;SDS011;5563;52.296;6.806;2023-03-23T10:19:18;4.32;;;1.92;;
11018;SDS011;5563;52.296;6.806;2023-03-23T10:21:51;6.03;;;1.73;;
11018;SDS011;5563;52.296;6.806;2023-03-23T10:24:32;2.90;;;1.63;;
11018;SDS011;5563;52.296;6.806;2023-03-23T10:29:50;2.90;;;2.08;;
11018;SDS011;5563;52.296;6.806;2023-03-23T10:35:18;3.83;;;1.80;;
11018;SDS011;5563;52.296;6.806;2023-03-23T10:37:50;5.40;;;2.00;;
11018;SDS011;5563;52.296;6.806;2023-03-23T10:40:30;5.70;;;1.73;;
11018;SDS011;5563;52.296;6.806;2023-03-23T10:42:59;5.68;;;1.88;;
11018;SDS011;5563;52.296;6.806;2023-03-23T10:45:33;4.97;;;1.98;;
11018;SDS011;5563;52.296;6.806;2023-03-23T10:48:28;5.45;;;1.70;;
11018;SDS011;5563;52.296;6.806;2023-03-23T10:51:06;3.30;;;1.85;;
11018;SDS011;5563;52.296;6.806;2023-03-23T10:53:42;2.72;;;1.52;;
11018;SDS011;5563;52.296;6.806;2023-03-23T10:56:21;3.05;;;1.52;;
11018;SDS011;5563;52.296;6.806;2023-03-23T10:58:50;4.55;;;1.73;;
11018;SDS011;5563;52.296;6.806;2023-03-23T11:01:30;4.60;;;1.50;;
11018;SDS011;5563;52.296;6.806;2023-03-23T11:04:10;5.13;;;1.52;;
11018;SDS011;5563;52.296;6.806;2023-03-23T11:06:46;4.63;;;1.77;;
11018;SDS011;5563;52.296;6.806;2023-03-23T11:09:34;4.80;;;1.88;;
11018;SDS011;5563;52.296;6.806;2023-03-23T11:12:03;5.25;;;2.00;;
11018;SDS011;5563;52.296;6.806;2023-03-23T11:14:37;5.35;;;1.90;;
11018;SDS011;5563;52.296;6.806;2023-03-23T11:17:20;6.60;;;2.25;;
11018;SDS011;5563;52.296;6.806;2023-03-23T11:20:09;7.68;;;1.98;;
11018;SDS011;5563;52.296;6.806;2023-03-23T11:22:44;6.63;;;2.17;;
11018;SDS011;5563;52.296;6.806;2023-03-23T11:25:18;4.63;;;1.90;;
11018;SDS011;5563;52.296;6.806;2023-03-23T11:27:45;6.10;;;2.25;;
11018;SDS011;5563;52.296;6.806;2023-03-23T11:30:24;7.13;;;1.90;;
11018;SDS011;5563;52.296;6.806;2023-03-23T11:32:54;8.82;;;2.35;;
11018;SDS011;5563;52.296;6.806;2023-03-23T11:35:31;5.47;;;1.98;;
11018;SDS011;5563;52.296;6.806;2023-03-23T11:38:05;4.88;;;1.80;;
11018;SDS011;5563;52.296;6.806;2023-03-23T11:40:43;5.05;;;1.80;;
11018;SDS011;5563;52.296;6.806;2023-03-23T11:43:24;2.70;;;1.80;;
11018;SDS011;5563;52.296;6.806;2023-03-23T11:46:14;5.68;;;2.25;;
11018;SDS011;5563;52.296;6.806;2023-03-23T11:49:00;4.82;;;2.13;;
11018;SDS011;5563;52.296;6.806;2023-03-23T11:51:52;6.25;;;1.88;;
11018;SDS011;5563;52.296;6.806;2023-03-23T11:54:33;6.15;;;1.95;;
11018;SDS011;5563;52.296;6.806;2023-03-23T11:57:11;6.32;;;1.88;;
11018;SDS011;5563;52.296;6.806;2023-03-23T11:59:39;6.13;;;1.85;;
11018;SDS011;5563;52.296;6.806;2023-03-23T12:25:52;7.15;;;1.65;;
11018;SDS011;5563;52.296;6.806;2023-03-23T12:34:31;5.25;;;2.28;;
11018;SDS011;5563;52.296;6.806;2023-03-23T12:42:54;5.25;;;2.17;;
11018;SDS011;5563;52.296;6.806;2023-03-23T12:48:21;5.47;;;1.95;;
11018;SDS011;5563;52.296;6.806;2023-03-23T12:56:40;5.40;;;2.05;;
11018;SDS011;5563;52.296;6.806;2023-03-23T12:59:42;4.90;;;2.08;;
11018;SDS011;5563;52.296;6.806;2023-03-23T13:02:45;4.60;;;1.98;;
11018;SDS011;5563;52.296;6.806;2023-03-23T13:10:33;5.05;;;2.30;;
11018;SDS011;5563;52.296;6.806;2023-03-23T13:13:13;5.78;;;1.92;;
11018;SDS011;5563;52.296;6.806;2023-03-23T13:16:04;5.82;;;2.00;;
11018;SDS011;5563;52.296;6.806;2023-03-23T13:18:58;2.72;;;1.80;;
11018;SDS011;5563;52.296;6.806;2023-03-23T13:24:14;4.70;;;1.70;;
11018;SDS011;5563;52.296;6.806;2023-03-23T13:26:50;3.55;;;1.63;;
11018;SDS011;5563;52.296;6.806;2023-03-23T13:29:18;5.20;;;2.13;;
11018;SDS011;5563;52.296;6.806;2023-03-23T13:32:12;3.58;;;1.38;;
11018;SDS011;5563;52.296;6.806;2023-03-23T13:34:52;2.83;;;1.40;;
11018;SDS011;5563;52.296;6.806;2023-03-23T13:37:22;2.53;;;1.17;;
11018;SDS011;5563;52.296;6.806;2023-03-23T13:42:57;2.08;;;1.40;;
11018;SDS011;5563;52.296;6.806;2023-03-23T13:45:36;4.07;;;2.10;;
11018;SDS011;5563;52.296;6.806;2023-03-23T13:48:19;2.92;;;1.92;;
11018;SDS011;5563;52.296;6.806;2023-03-23T13:50:52;6.60;;;2.20;;
11018;SDS011;5563;52.296;6.806;2023-03-23T13:53:30;3.85;;;2.15;;
11018;SDS011;5563;52.296;6.806;2023-03-23T13:59:07;2.35;;;1.40;;
11018;SDS011;5563;52.296;6.806;2023-03-23T14:02:20;4.00;;;1.63;;
11018;SDS011;5563;52.296;6.806;2023-03-23T14:05:26;4.28;;;1.55;;
11018;SDS011;5563;52.296;6.806;2023-03-23T14:08:44;4.07;;;1.70;;
11018;SDS011;5563;52.296;6.806;2023-03-23T14:10:59;3.90;;;1.23;;
11018;SDS011;5563;52.296;6.806;2023-03-23T14:13:34;3.10;;;1.58;;
11018;SDS011;5563;52.296;6.806;2023-03-23T14:18:57;3.25;;;1.40;;
11018;SDS011;5563;52.296;6.806;2023-03-23T14:21:34;4.53;;;1.58;;
11018;SDS011;5563;52.296;6.806;2023-03-23T14:24:15;2.78;;;1.50;;
11018;SDS011;5563;52.296;6.806;2023-03-23T14:26:51;3.78;;;1.83;;
11018;SDS011;5563;52.296;6.806;2023-03-23T14:29:20;2.53;;;1.67;;
11018;SDS011;5563;52.296;6.806;2023-03-23T14:31:54;4.03;;;1.83;;
11018;SDS011;5563;52.296;6.806;2023-03-23T14:34:24;3.50;;;1.90;;
11018;SDS011;5563;52.296;6.806;2023-03-23T14:36:53;2.75;;;1.90;;
11018;SDS011;5563;52.296;6.806;2023-03-23T14:39:31;2.35;;;1.65;;
11018;SDS011;5563;52.296;6.806;2023-03-23T14:42:04;4.80;;;1.70;;
11018;SDS011;5563;52.296;6.806;2023-03-23T14:44:47;4.93;;;1.75;;
11018;SDS011;5563;52.296;6.806;2023-03-23T14:47:34;3.90;;;1.70;;
11018;SDS011;5563;52.296;6.806;2023-03-23T14:50:06;2.15;;;1.63;;
11018;SDS011;5563;52.296;6.806;2023-03-23T14:52:59;2.40;;;1.50;;
11018;SDS011;5563;52.296;6.806;2023-03-23T14:55:30;2.47;;;1.60;;
11018;SDS011;5563;52.296;6.806;2023-03-23T14:58:07;4.30;;;1.70;;
11018;SDS011;5563;52.296;6.806;2023-03-23T15:00:43;2.83;;;2.00;;
11018;SDS011;5563;52.296;6.806;2023-03-23T15:03:40;3.45;;;1.75;;
11018;SDS011;5563;52.296;6.806;2023-03-23T15:06:16;4.93;;;1.70;;
11018;SDS011;5563;52.296;6.806;2023-03-23T15:08:53;7.32;;;1.85;;
11018;SDS011;5563;52.296;6.806;2023-03-23T15:11:31;2.95;;;1.90;;
11018;SDS011;5563;52.296;6.806;2023-03-23T15:14:26;2.97;;;1.83;;
11018;SDS011;5563;52.296;6.806;2023-03-23T15:16:56;2.95;;;2.08;;
11018;SDS011;5563;52.296;6.806;2023-03-23T15:19:33;3.67;;;2.20;;
11018;SDS011;5563;52.296;6.806;2023-03-23T15:22:12;3.28;;;2.38;;
11018;SDS011;5563;52.296;6.806;2023-03-23T15:25:00;4.80;;;2.50;;
11018;SDS011;5563;52.296;6.806;2023-03-23T15:27:41;2.55;;;1.90;;
11018;SDS011;5563;52.296;6.806;2023-03-23T15:30:14;4.43;;;2.25;;
11018;SDS011;5563;52.296;6.806;2023-03-23T15:33:05;4.82;;;2.67;;
11018;SDS011;5563;52.296;6.806;2023-03-23T15:35:37;4.28;;;2.17;;
11018;SDS011;5563;52.296;6.806;2023-03-23T15:40:57;8.73;;;3.08;;
11018;SDS011;5563;52.296;6.806;2023-03-23T15:43:34;4.72;;;2.30;;
11018;SDS011;5563;52.296;6.806;2023-03-23T15:46:21;4.70;;;2.97;;
11018;SDS011;5563;52.296;6.806;2023-03-23T15:51:27;5.38;;;2.33;;
11018;SDS011;5563;52.296;6.806;2023-03-23T15:54:02;4.43;;;2.90;;
11018;SDS011;5563;52.296;6.806;2023-03-23T15:56:39;5.93;;;2.78;;
11018;SDS011;5563;52.296;6.806;2023-03-23T15:59:14;4.03;;;2.92;;
11018;SDS011;5563;52.296;6.806;2023-03-23T16:01:47;5.82;;;2.60;;
11018;SDS011;5563;52.296;6.806;2023-03-23T16:04:15;7.07;;;3.05;;
11018;SDS011;5563;52.296;6.806;2023-03-23T16:06:51;5.68;;;2.60;;
11018;SDS011;5563;52.296;6.806;2023-03-23T16:09:28;4.15;;;2.83;;
11018;SDS011;5563;52.296;6.806;2023-03-23T16:12:01;3.00;;;2.70;;
11018;SDS011;5563;52.296;6.806;2023-03-23T16:14:33;3.28;;;2.58;;
11018;SDS011;5563;52.296;6.806;2023-03-23T16:17:09;8.23;;;2.47;;
11018;SDS011;5563;52.296;6.806;2023-03-23T16:19:46;6.07;;;2.83;;
11018;SDS011;5563;52.296;6.806;2023-03-23T16:22:13;4.57;;;2.60;;
11018;SDS011;5563;52.296;6.806;2023-03-23T16:24:46;6.13;;;2.42;;
11018;SDS011;5563;52.296;6.806;2023-03-23T16:27:13;5.25;;;2.30;;
11018;SDS011;5563;52.296;6.806;2023-03-23T16:29:48;6.10;;;2.63;;
11018;SDS011;5563;52.296;6.806;2023-03-23T16:32:30;7.20;;;3.00;;
11018;SDS011;5563;52.296;6.806;2023-03-23T16:35:02;6.53;;;2.42;;
11018;SDS011;5563;52.296;6.806;2023-03-23T16:37:36;5.35;;;2.40;;
11018;SDS011;5563;52.296;6.806;2023-03-23T16:40:09;7.03;;;2.63;;
11018;SDS011;5563;52.296;6.806;2023-03-23T16:42:38;5.72;;;2.60;;
11018;SDS011;5563;52.296;6.806;2023-03-23T16:45:18;4.60;;;2.42;;
11018;SDS011;5563;52.296;6.806;2023-03-23T16:47:46;5.80;;;2.53;;
11018;SDS011;5563;52.296;6.806;2023-03-23T16:50:20;5.88;;;2.30;;
11018;SDS011;5563;52.296;6.806;2023-03-23T16:52:46;5.25;;;2.15;;
11018;SDS011;5563;52.296;6.806;2023-03-23T16:55:19;4.00;;;2.28;;
11018;SDS011;5563;52.296;6.806;2023-03-23T16:57:46;5.65;;;1.98;;
11018;SDS011;5563;52.296;6.806;2023-03-23T17:00:34;4.40;;;1.98;;
11018;SDS011;5563;52.296;6.806;2023-03-23T17:03:01;4.13;;;2.08;;
11018;SDS011;5563;52.296;6.806;2023-03-23T17:05:35;5.90;;;2.25;;
11018;SDS011;5563;52.296;6.806;2023-03-23T17:08:03;4.03;;;2.17;;
11018;SDS011;5563;52.296;6.806;2023-03-23T17:10:31;6.82;;;2.25;;
11018;SDS011;5563;52.296;6.806;2023-03-23T17:13:05;4.32;;;2.00;;
11018;SDS011;5563;52.296;6.806;2023-03-23T17:15:41;6.03;;;2.50;;
11018;SDS011;5563;52.296;6.806;2023-03-23T17:18:16;6.00;;;2.10;;
11018;SDS011;5563;52.296;6.806;2023-03-23T17:20:43;5.00;;;2.53;;
11018;SDS011;5563;52.296;6.806;2023-03-23T17:23:17;3.35;;;1.98;;
11018;SDS011;5563;52.296;6.806;2023-03-23T17:25:45;3.55;;;2.22;;
11018;SDS011;5563;52.296;6.806;2023-03-23T17:28:20;5.00;;;2.42;;
11018;SDS011;5563;52.296;6.806;2023-03-23T17:30:54;4.32;;;2.55;;
11018;SDS011;5563;52.296;6.806;2023-03-23T17:33:28;9.60;;;2.95;;
11018;SDS011;5563;52.296;6.806;2023-03-23T17:35:55;4.50;;;2.40;;